sensor_id;sensor_type;location;lat;lon;timestamp;temperature;humidity
65972;SHT31;52726;48.852;9.152;2023-04-03T00:01:55;3.36;76.02
65972;SHT31;52726;48.852;9.152;2023-04-03T00:04:21;3.36;76.19
65972;SHT31;52726;48.852;9.152;2023-04-03T00:06:46;3.35;76.45
65972;SHT31;52726;48.852;9.152;2023-04-03T00:09:12;3.34;76.11
65972;SHT31;52726;48.852;9.152;2023-04-03T00:11:37;3.34;76.34
65972;SHT31;52726;48.852;9.152;2023-04-03T00:14:02;3.38;75.89
65972;SHT31;52726;48.852;9.152;2023-04-03T00:16:28;3.39;75.49
65972;SHT31;52726;48.852;9.152;2023-04-03T00:18:53;3.35;75.94
65972;SHT31;52726;48.852;9.152;2023-04-03T00:21:19;3.29;76.73
65972;SHT31;52726;48.852;9.152;2023-04-03T00:23:44;3.29;76.91
65972;SHT31;52726;48.852;9.152;2023-04-03T00:26:10;3.31;76.31
65972;SHT31;52726;48.852;9.152;2023-04-03T00:28:35;3.31;76.96
65972;SHT31;52726;48.852;9.152;2023-04-03T00:31:01;3.29;77.52
65972;SHT31;52726;48.852;9.152;2023-04-03T00:33:26;3.27;76.98
65972;SHT31;52726;48.852;9.152;2023-04-03T00:35:52;3.27;77.34
65972;SHT31;52726;48.852;9.152;2023-04-03T00:38:17;3.24;77.21
65972;SHT31;52726;48.852;9.152;2023-04-03T00:40:46;3.29;77.11
65972;SHT31;52726;48.852;9.152;2023-04-03T00:43:14;3.31;77.02
65972;SHT31;52726;48.852;9.152;2023-04-03T00:45:43;3.24;77.24
65972;SHT31;52726;48.852;9.152;2023-04-03T00:48:12;3.17;77.64
65972;SHT31;52726;48.852;9.152;2023-04-03T00:50:41;3.15;77.18
65972;SHT31;52726;48.852;9.152;2023-04-03T00:53:10;3.19;77.63
65972;SHT31;52726;48.852;9.152;2023-04-03T00:55:38;3.17;77.76
65972;SHT31;52726;48.852;9.152;2023-04-03T00:58:05;3.18;77.67
65972;SHT31;52726;48.852;9.152;2023-04-03T01:00:32;3.14;77.57
65972;SHT31;52726;48.852;9.152;2023-04-03T01:02:59;3.09;77.96
65972;SHT31;52726;48.852;9.152;2023-04-03T01:05:25;3.09;78.12
65972;SHT31;52726;48.852;9.152;2023-04-03T01:07:51;3.07;77.90
65972;SHT31;52726;48.852;9.152;2023-04-03T01:10:17;3.07;78.03
65972;SHT31;52726;48.852;9.152;2023-04-03T01:12:47;3.07;78.14
65972;SHT31;52726;48.852;9.152;2023-04-03T01:15:16;3.08;77.91
65972;SHT31;52726;48.852;9.152;2023-04-03T01:17:48;3.07;78.44
65972;SHT31;52726;48.852;9.152;2023-04-03T01:25:43;3.07;77.96
65972;SHT31;52726;48.852;9.152;2023-04-03T01:28:16;3.07;77.42
65972;SHT31;52726;48.852;9.152;2023-04-03T01:31:02;3.07;77.22
65972;SHT31;52726;48.852;9.152;2023-04-03T01:33:31;3.07;76.50
65972;SHT31;52726;48.852;9.152;2023-04-03T01:35:56;3.09;76.55
65972;SHT31;52726;48.852;9.152;2023-04-03T01:38:22;3.14;75.94
65972;SHT31;52726;48.852;9.152;2023-04-03T01:40:47;3.11;76.06
65972;SHT31;52726;48.852;9.152;2023-04-03T01:43:13;3.19;75.63
65972;SHT31;52726;48.852;9.152;2023-04-03T01:45:41;3.40;74.33
65972;SHT31;52726;48.852;9.152;2023-04-03T01:48:06;3.29;74.87
65972;SHT31;52726;48.852;9.152;2023-04-03T01:50:32;3.19;75.16
65972;SHT31;52726;48.852;9.152;2023-04-03T01:52:57;3.12;75.51
65972;SHT31;52726;48.852;9.152;2023-04-03T01:55:23;3.25;74.94
65972;SHT31;52726;48.852;9.152;2023-04-03T01:57:48;3.18;74.84
65972;SHT31;52726;48.852;9.152;2023-04-03T02:00:14;3.24;74.49
65972;SHT31;52726;48.852;9.152;2023-04-03T02:02:39;3.15;74.74
65972;SHT31;52726;48.852;9.152;2023-04-03T02:05:05;3.15;74.67
65972;SHT31;52726;48.852;9.152;2023-04-03T02:07:30;3.11;74.94
65972;SHT31;52726;48.852;9.152;2023-04-03T02:09:56;3.09;74.81
65972;SHT31;52726;48.852;9.152;2023-04-03T02:12:21;3.05;75.23
65972;SHT31;52726;48.852;9.152;2023-04-03T02:14:46;3.03;75.86
65972;SHT31;52726;48.852;9.152;2023-04-03T02:17:12;3.01;75.55
65972;SHT31;52726;48.852;9.152;2023-04-03T02:19:37;2.98;74.99
65972;SHT31;52726;48.852;9.152;2023-04-03T02:22:04;2.97;75.66
65972;SHT31;52726;48.852;9.152;2023-04-03T02:24:30;2.96;75.09
65972;SHT31;52726;48.852;9.152;2023-04-03T02:26:55;2.96;75.28
65972;SHT31;52726;48.852;9.152;2023-04-03T02:29:21;2.97;74.71
65972;SHT31;52726;48.852;9.152;2023-04-03T02:31:46;2.98;74.90
65972;SHT31;52726;48.852;9.152;2023-04-03T02:34:12;2.98;74.74
65972;SHT31;52726;48.852;9.152;2023-04-03T02:36:37;3.00;73.55
65972;SHT31;52726;48.852;9.152;2023-04-03T02:39:03;3.00;73.31
65972;SHT31;52726;48.852;9.152;2023-04-03T02:41:29;3.01;73.72
65972;SHT31;52726;48.852;9.152;2023-04-03T02:44:00;3.01;71.90
65972;SHT31;52726;48.852;9.152;2023-04-03T02:46:25;3.08;71.81
65972;SHT31;52726;48.852;9.152;2023-04-03T02:48:51;3.08;71.86
65972;SHT31;52726;48.852;9.152;2023-04-03T02:51:16;3.09;71.33
65972;SHT31;52726;48.852;9.152;2023-04-03T02:53:41;3.09;71.56
65972;SHT31;52726;48.852;9.152;2023-04-03T02:56:07;3.09;71.42
65972;SHT31;52726;48.852;9.152;2023-04-03T02:58:32;3.08;71.22
65972;SHT31;52726;48.852;9.152;2023-04-03T03:00:57;3.12;70.74
65972;SHT31;52726;48.852;9.152;2023-04-03T03:03:22;3.12;71.18
65972;SHT31;52726;48.852;9.152;2023-04-03T03:05:48;3.11;71.68
65972;SHT31;52726;48.852;9.152;2023-04-03T03:08:13;3.11;71.37
65972;SHT31;52726;48.852;9.152;2023-04-03T03:10:39;3.12;70.87
65972;SHT31;52726;48.852;9.152;2023-04-03T03:13:04;3.11;71.17
65972;SHT31;52726;48.852;9.152;2023-04-03T03:15:29;3.08;71.27
65972;SHT31;52726;48.852;9.152;2023-04-03T03:17:55;3.09;71.65
65972;SHT31;52726;48.852;9.152;2023-04-03T03:20:20;3.09;72.21
65972;SHT31;52726;48.852;9.152;2023-04-03T03:22:46;3.11;71.89
65972;SHT31;52726;48.852;9.152;2023-04-03T03:25:11;3.09;71.95
65972;SHT31;52726;48.852;9.152;2023-04-03T03:27:37;3.11;71.97
65972;SHT31;52726;48.852;9.152;2023-04-03T03:30:03;3.11;71.50
65972;SHT31;52726;48.852;9.152;2023-04-03T03:32:28;3.08;72.54
65972;SHT31;52726;48.852;9.152;2023-04-03T03:34:54;3.08;72.45
65972;SHT31;52726;48.852;9.152;2023-04-03T03:37:19;3.08;72.34
65972;SHT31;52726;48.852;9.152;2023-04-03T03:39:44;3.08;72.23
65972;SHT31;52726;48.852;9.152;2023-04-03T03:42:10;3.07;72.46
65972;SHT31;52726;48.852;9.152;2023-04-03T03:44:36;3.07;72.02
65972;SHT31;52726;48.852;9.152;2023-04-03T03:47:01;3.09;71.90
65972;SHT31;52726;48.852;9.152;2023-04-03T03:49:28;3.11;72.14
65972;SHT31;52726;48.852;9.152;2023-04-03T03:51:53;3.11;71.92
65972;SHT31;52726;48.852;9.152;2023-04-03T03:54:18;3.09;71.67
65972;SHT31;52726;48.852;9.152;2023-04-03T03:56:43;3.22;71.03
65972;SHT31;52726;48.852;9.152;2023-04-03T03:59:11;3.19;71.02
65972;SHT31;52726;48.852;9.152;2023-04-03T04:01:37;3.25;70.58
65972;SHT31;52726;48.852;9.152;2023-04-03T04:04:02;3.39;69.47
65972;SHT31;52726;48.852;9.152;2023-04-03T04:06:28;3.32;69.79
65972;SHT31;52726;48.852;9.152;2023-04-03T04:08:53;3.38;69.27
65972;SHT31;52726;48.852;9.152;2023-04-03T04:11:19;3.51;68.25
65972;SHT31;52726;48.852;9.152;2023-04-03T04:13:45;3.40;68.57
65972;SHT31;52726;48.852;9.152;2023-04-03T04:16:11;3.49;68.41
65972;SHT31;52726;48.852;9.152;2023-04-03T04:18:36;3.36;69.15
65972;SHT31;52726;48.852;9.152;2023-04-03T04:21:02;3.36;69.10
65972;SHT31;52726;48.852;9.152;2023-04-03T04:23:27;3.31;69.47
65972;SHT31;52726;48.852;9.152;2023-04-03T04:25:52;3.27;70.07
65972;SHT31;52726;48.852;9.152;2023-04-03T04:28:18;3.27;69.61
65972;SHT31;52726;48.852;9.152;2023-04-03T04:30:44;3.24;69.66
65972;SHT31;52726;48.852;9.152;2023-04-03T04:33:10;3.25;69.83
65972;SHT31;52726;48.852;9.152;2023-04-03T04:35:35;3.28;69.84
65972;SHT31;52726;48.852;9.152;2023-04-03T04:38:01;3.56;68.07
65972;SHT31;52726;48.852;9.152;2023-04-03T04:40:27;3.43;67.19
65972;SHT31;52726;48.852;9.152;2023-04-03T04:42:52;3.38;66.28
65972;SHT31;52726;48.852;9.152;2023-04-03T04:45:18;3.32;66.44
65972;SHT31;52726;48.852;9.152;2023-04-03T04:47:43;3.54;64.96
65972;SHT31;52726;48.852;9.152;2023-04-03T04:50:09;3.62;64.50
65972;SHT31;52726;48.852;9.152;2023-04-03T04:52:34;3.54;65.23
65972;SHT31;52726;48.852;9.152;2023-04-03T04:55:00;3.40;67.20
65972;SHT31;52726;48.852;9.152;2023-04-03T04:57:25;3.31;67.99
65972;SHT31;52726;48.852;9.152;2023-04-03T04:59:50;3.25;68.76
65972;SHT31;52726;48.852;9.152;2023-04-03T05:02:16;3.27;68.59
65972;SHT31;52726;48.852;9.152;2023-04-03T05:04:41;3.25;68.68
65972;SHT31;52726;48.852;9.152;2023-04-03T05:07:06;3.22;69.39
65972;SHT31;52726;48.852;9.152;2023-04-03T05:09:32;3.19;70.03
65972;SHT31;52726;48.852;9.152;2023-04-03T05:11:57;3.14;70.46
65972;SHT31;52726;48.852;9.152;2023-04-03T05:14:23;3.12;71.15
65972;SHT31;52726;48.852;9.152;2023-04-03T05:16:48;3.11;70.99
65972;SHT31;52726;48.852;9.152;2023-04-03T05:19:14;3.08;71.27
65972;SHT31;52726;48.852;9.152;2023-04-03T05:21:39;3.08;71.88
65972;SHT31;52726;48.852;9.152;2023-04-03T05:24:05;3.08;71.76
65972;SHT31;52726;48.852;9.152;2023-04-03T05:26:34;3.05;73.16
65972;SHT31;52726;48.852;9.152;2023-04-03T05:28:59;2.97;74.31
65972;SHT31;52726;48.852;9.152;2023-04-03T05:31:24;2.86;75.08
65972;SHT31;52726;48.852;9.152;2023-04-03T05:33:50;2.77;75.49
65972;SHT31;52726;48.852;9.152;2023-04-03T05:36:15;2.76;75.64
65972;SHT31;52726;48.852;9.152;2023-04-03T05:38:41;2.77;75.56
65972;SHT31;52726;48.852;9.152;2023-04-03T05:41:06;2.75;75.67
65972;SHT31;52726;48.852;9.152;2023-04-03T05:43:31;2.76;75.31
65972;SHT31;52726;48.852;9.152;2023-04-03T05:45:58;2.77;75.89
65972;SHT31;52726;48.852;9.152;2023-04-03T05:48:24;2.79;74.05
65972;SHT31;52726;48.852;9.152;2023-04-03T05:50:51;2.84;73.89
65972;SHT31;52726;48.852;9.152;2023-04-03T05:53:24;2.89;73.36
65972;SHT31;52726;48.852;9.152;2023-04-03T05:55:51;2.93;72.77
65972;SHT31;52726;48.852;9.152;2023-04-03T05:58:16;2.93;72.42
65972;SHT31;52726;48.852;9.152;2023-04-03T06:00:41;3.00;72.46
65972;SHT31;52726;48.852;9.152;2023-04-03T06:03:07;3.01;72.87
65972;SHT31;52726;48.852;9.152;2023-04-03T06:05:32;3.08;73.28
65972;SHT31;52726;48.852;9.152;2023-04-03T06:07:58;3.08;71.93
65972;SHT31;52726;48.852;9.152;2023-04-03T06:10:23;3.07;72.00
65972;SHT31;52726;48.852;9.152;2023-04-03T06:12:49;3.07;71.77
65972;SHT31;52726;48.852;9.152;2023-04-03T06:15:15;3.14;71.49
65972;SHT31;52726;48.852;9.152;2023-04-03T06:17:42;3.18;71.62
65972;SHT31;52726;48.852;9.152;2023-04-03T06:20:08;3.18;72.74
65972;SHT31;52726;48.852;9.152;2023-04-03T06:22:34;3.15;72.44
65972;SHT31;52726;48.852;9.152;2023-04-03T06:25:00;3.22;72.68
65972;SHT31;52726;48.852;9.152;2023-04-03T06:27:26;3.29;72.76
65972;SHT31;52726;48.852;9.152;2023-04-03T06:29:51;3.32;72.38
65972;SHT31;52726;48.852;9.152;2023-04-03T06:32:17;3.28;72.17
65972;SHT31;52726;48.852;9.152;2023-04-03T06:34:42;3.28;72.10
65972;SHT31;52726;48.852;9.152;2023-04-03T06:37:15;3.40;71.68
65972;SHT31;52726;48.852;9.152;2023-04-03T06:39:41;3.54;70.05
65972;SHT31;52726;48.852;9.152;2023-04-03T06:42:07;3.45;71.62
65972;SHT31;52726;48.852;9.152;2023-04-03T06:44:32;3.63;70.15
65972;SHT31;52726;48.852;9.152;2023-04-03T06:47:00;3.55;70.81
65972;SHT31;52726;48.852;9.152;2023-04-03T06:49:26;3.58;70.23
65972;SHT31;52726;48.852;9.152;2023-04-03T06:51:51;3.56;70.89
65972;SHT31;52726;48.852;9.152;2023-04-03T06:54:17;3.67;70.28
65972;SHT31;52726;48.852;9.152;2023-04-03T06:56:43;3.67;71.40
65972;SHT31;52726;48.852;9.152;2023-04-03T06:59:09;3.63;71.02
65972;SHT31;52726;48.852;9.152;2023-04-03T07:01:34;3.72;70.96
65972;SHT31;52726;48.852;9.152;2023-04-03T07:04:00;3.69;70.33
65972;SHT31;52726;48.852;9.152;2023-04-03T07:06:25;3.76;69.77
65972;SHT31;52726;48.852;9.152;2023-04-03T07:08:54;3.76;70.25
65972;SHT31;52726;48.852;9.152;2023-04-03T07:11:20;3.72;70.28
65972;SHT31;52726;48.852;9.152;2023-04-03T07:13:45;3.83;70.05
65972;SHT31;52726;48.852;9.152;2023-04-03T07:16:11;3.87;70.12
65972;SHT31;52726;48.852;9.152;2023-04-03T07:18:36;3.97;69.80
65972;SHT31;52726;48.852;9.152;2023-04-03T07:21:02;3.94;70.07
65972;SHT31;52726;48.852;9.152;2023-04-03T07:23:28;3.93;69.06
65972;SHT31;52726;48.852;9.152;2023-04-03T07:25:54;4.04;70.07
65972;SHT31;52726;48.852;9.152;2023-04-03T07:28:20;4.15;70.25
65972;SHT31;52726;48.852;9.152;2023-04-03T07:30:48;4.25;70.02
65972;SHT31;52726;48.852;9.152;2023-04-03T07:33:14;4.37;69.71
65972;SHT31;52726;48.852;9.152;2023-04-03T07:35:41;4.49;69.14
65972;SHT31;52726;48.852;9.152;2023-04-03T07:38:07;4.66;68.29
65972;SHT31;52726;48.852;9.152;2023-04-03T07:40:33;4.75;68.68
65972;SHT31;52726;48.852;9.152;2023-04-03T07:42:59;5.06;66.91
65972;SHT31;52726;48.852;9.152;2023-04-03T07:45:24;5.38;67.21
65972;SHT31;52726;48.852;9.152;2023-04-03T07:47:50;5.44;67.34
65972;SHT31;52726;48.852;9.152;2023-04-03T07:50:17;5.60;65.74
65972;SHT31;52726;48.852;9.152;2023-04-03T07:52:42;5.38;66.64
65972;SHT31;52726;48.852;9.152;2023-04-03T07:55:08;5.42;65.95
65972;SHT31;52726;48.852;9.152;2023-04-03T07:57:34;5.34;67.16
65972;SHT31;52726;48.852;9.152;2023-04-03T07:59:59;5.28;67.66
65972;SHT31;52726;48.852;9.152;2023-04-03T08:02:24;5.06;68.07
65972;SHT31;52726;48.852;9.152;2023-04-03T08:04:50;5.28;66.53
65972;SHT31;52726;48.852;9.152;2023-04-03T08:07:15;6.16;64.92
65972;SHT31;52726;48.852;9.152;2023-04-03T08:09:41;6.58;62.62
65972;SHT31;52726;48.852;9.152;2023-04-03T08:12:06;6.56;63.48
65972;SHT31;52726;48.852;9.152;2023-04-03T08:14:32;6.38;64.64
65972;SHT31;52726;48.852;9.152;2023-04-03T08:16:59;6.42;64.88
65972;SHT31;52726;48.852;9.152;2023-04-03T08:19:25;6.56;64.15
65972;SHT31;52726;48.852;9.152;2023-04-03T08:21:51;6.16;65.66
65972;SHT31;52726;48.852;9.152;2023-04-03T08:24:16;6.28;64.17
65972;SHT31;52726;48.852;9.152;2023-04-03T08:26:41;6.00;65.98
65972;SHT31;52726;48.852;9.152;2023-04-03T08:29:07;6.03;66.41
65972;SHT31;52726;48.852;9.152;2023-04-03T08:31:32;6.20;64.20
65972;SHT31;52726;48.852;9.152;2023-04-03T08:33:58;6.59;63.66
65972;SHT31;52726;48.852;9.152;2023-04-03T08:36:28;6.48;66.45
65972;SHT31;52726;48.852;9.152;2023-04-03T08:38:55;6.34;65.91
65972;SHT31;52726;48.852;9.152;2023-04-03T08:41:32;6.31;64.04
65972;SHT31;52726;48.852;9.152;2023-04-03T08:49:22;5.69;65.37
65972;SHT31;52726;48.852;9.152;2023-04-03T08:51:51;5.55;67.36
65972;SHT31;52726;48.852;9.152;2023-04-03T08:54:29;5.82;64.66
65972;SHT31;52726;48.852;9.152;2023-04-03T08:56:55;5.79;64.91
65972;SHT31;52726;48.852;9.152;2023-04-03T08:59:27;5.76;65.18
65972;SHT31;52726;48.852;9.152;2023-04-03T09:01:56;6.00;67.25
65972;SHT31;52726;48.852;9.152;2023-04-03T09:04:22;5.96;65.52
65972;SHT31;52726;48.852;9.152;2023-04-03T09:06:53;6.13;66.80
65972;SHT31;52726;48.852;9.152;2023-04-03T09:09:37;6.56;65.34
65972;SHT31;52726;48.852;9.152;2023-04-03T09:12:09;6.75;65.73
65972;SHT31;52726;48.852;9.152;2023-04-03T09:14:45;6.78;61.88
65972;SHT31;52726;48.852;9.152;2023-04-03T09:17:34;6.37;61.03
65972;SHT31;52726;48.852;9.152;2023-04-03T09:22:38;6.27;62.61
65972;SHT31;52726;48.852;9.152;2023-04-03T09:25:17;6.35;61.15
65972;SHT31;52726;48.852;9.152;2023-04-03T09:27:43;5.99;63.49
65972;SHT31;52726;48.852;9.152;2023-04-03T09:30:17;6.17;62.36
65972;SHT31;52726;48.852;9.152;2023-04-03T09:32:45;6.25;60.71
65972;SHT31;52726;48.852;9.152;2023-04-03T09:35:33;6.37;60.53
65972;SHT31;52726;48.852;9.152;2023-04-03T09:38:15;6.41;61.20
65972;SHT31;52726;48.852;9.152;2023-04-03T09:40:46;6.34;62.88
65972;SHT31;52726;48.852;9.152;2023-04-03T09:43:32;6.31;62.91
65972;SHT31;52726;48.852;9.152;2023-04-03T09:46:36;6.38;58.77
65972;SHT31;52726;48.852;9.152;2023-04-03T09:49:04;6.41;58.45
65972;SHT31;52726;48.852;9.152;2023-04-03T09:51:30;6.41;60.36
65972;SHT31;52726;48.852;9.152;2023-04-03T09:53:57;6.24;62.22
65972;SHT31;52726;48.852;9.152;2023-04-03T09:56:34;6.31;61.37
65972;SHT31;52726;48.852;9.152;2023-04-03T10:01:37;6.03;62.15
65972;SHT31;52726;48.852;9.152;2023-04-03T10:04:18;6.13;61.66
65972;SHT31;52726;48.852;9.152;2023-04-03T10:06:50;6.14;62.95
65972;SHT31;52726;48.852;9.152;2023-04-03T10:09:24;5.92;62.96
65972;SHT31;52726;48.852;9.152;2023-04-03T10:12:08;6.14;63.34
65972;SHT31;52726;48.852;9.152;2023-04-03T10:14:58;6.18;61.28
65972;SHT31;52726;48.852;9.152;2023-04-03T10:23:15;5.82;62.05
65972;SHT31;52726;48.852;9.152;2023-04-03T10:29:16;5.90;60.44
65972;SHT31;52726;48.852;9.152;2023-04-03T10:31:56;6.07;61.46
65972;SHT31;52726;48.852;9.152;2023-04-03T10:34:29;6.14;61.14
65972;SHT31;52726;48.852;9.152;2023-04-03T10:37:24;6.27;58.87
65972;SHT31;52726;48.852;9.152;2023-04-03T10:45:28;6.21;58.45
65972;SHT31;52726;48.852;9.152;2023-04-03T10:51:01;6.38;58.21
65972;SHT31;52726;48.852;9.152;2023-04-03T10:53:56;6.31;55.67
65972;SHT31;52726;48.852;9.152;2023-04-03T10:56:43;6.18;56.19
65972;SHT31;52726;48.852;9.152;2023-04-03T10:59:18;6.20;57.18
65972;SHT31;52726;48.852;9.152;2023-04-03T11:01:51;6.18;57.84
65972;SHT31;52726;48.852;9.152;2023-04-03T11:04:19;6.28;59.18
65972;SHT31;52726;48.852;9.152;2023-04-03T11:06:57;6.17;57.34
65972;SHT31;52726;48.852;9.152;2023-04-03T11:09:28;6.20;59.38
65972;SHT31;52726;48.852;9.152;2023-04-03T11:12:23;6.24;58.24
65972;SHT31;52726;48.852;9.152;2023-04-03T11:14:55;6.18;57.44
65972;SHT31;52726;48.852;9.152;2023-04-03T11:17:35;6.06;56.37
65972;SHT31;52726;48.852;9.152;2023-04-03T11:20:17;6.09;58.23
65972;SHT31;52726;48.852;9.152;2023-04-03T11:22:51;6.20;60.11
65972;SHT31;52726;48.852;9.152;2023-04-03T11:25:24;6.16;59.22
65972;SHT31;52726;48.852;9.152;2023-04-03T11:30:42;6.30;58.17
65972;SHT31;52726;48.852;9.152;2023-04-03T11:36:24;6.10;58.38
65972;SHT31;52726;48.852;9.152;2023-04-03T11:38:54;6.06;58.28
65972;SHT31;52726;48.852;9.152;2023-04-03T11:41:31;6.31;60.09
65972;SHT31;52726;48.852;9.152;2023-04-03T11:44:03;6.45;58.85
65972;SHT31;52726;48.852;9.152;2023-04-03T11:46:48;6.38;57.46
65972;SHT31;52726;48.852;9.152;2023-04-03T12:05:48;6.38;56.62
65972;SHT31;52726;48.852;9.152;2023-04-03T12:08:28;6.31;56.67
65972;SHT31;52726;48.852;9.152;2023-04-03T12:16:48;6.24;56.59
65972;SHT31;52726;48.852;9.152;2023-04-03T12:29:37;6.72;54.08
65972;SHT31;52726;48.852;9.152;2023-04-03T12:37:57;6.97;53.80
65972;SHT31;52726;48.852;9.152;2023-04-03T12:40:52;6.92;54.53
65972;SHT31;52726;48.852;9.152;2023-04-03T12:43:48;6.58;54.78
65972;SHT31;52726;48.852;9.152;2023-04-03T12:46:21;6.67;54.60
65972;SHT31;52726;48.852;9.152;2023-04-03T12:48:55;6.92;53.90
65972;SHT31;52726;48.852;9.152;2023-04-03T12:51:38;7.20;52.19
65972;SHT31;52726;48.852;9.152;2023-04-03T12:54:26;7.17;51.92
65972;SHT31;52726;48.852;9.152;2023-04-03T12:57:11;6.83;52.61
65972;SHT31;52726;48.852;9.152;2023-04-03T12:59:37;6.79;52.77
65972;SHT31;52726;48.852;9.152;2023-04-03T13:02:15;6.89;53.34
65972;SHT31;52726;48.852;9.152;2023-04-03T13:04:42;6.97;53.64
65972;SHT31;52726;48.852;9.152;2023-04-03T13:07:22;6.85;51.75
65972;SHT31;52726;48.852;9.152;2023-04-03T13:12:33;6.75;53.61
65972;SHT31;52726;48.852;9.152;2023-04-03T13:15:01;6.71;55.56
65972;SHT31;52726;48.852;9.152;2023-04-03T13:17:30;7.03;53.97
65972;SHT31;52726;48.852;9.152;2023-04-03T13:20:10;7.06;53.14
65972;SHT31;52726;48.852;9.152;2023-04-03T13:22:39;6.89;54.25
65972;SHT31;52726;48.852;9.152;2023-04-03T13:25:11;6.90;51.64
65972;SHT31;52726;48.852;9.152;2023-04-03T13:27:39;6.83;52.58
65972;SHT31;52726;48.852;9.152;2023-04-03T13:30:23;6.82;51.18
65972;SHT31;52726;48.852;9.152;2023-04-03T13:32:49;6.85;52.22
65972;SHT31;52726;48.852;9.152;2023-04-03T13:38:00;6.86;53.19
65972;SHT31;52726;48.852;9.152;2023-04-03T13:40:26;7.10;54.25
65972;SHT31;52726;48.852;9.152;2023-04-03T13:43:04;7.28;51.54
65972;SHT31;52726;48.852;9.152;2023-04-03T13:45:31;7.44;52.74
65972;SHT31;52726;48.852;9.152;2023-04-03T13:48:10;7.57;51.67
65972;SHT31;52726;48.852;9.152;2023-04-03T13:51:16;7.44;52.21
65972;SHT31;52726;48.852;9.152;2023-04-03T13:54:15;7.40;49.56
65972;SHT31;52726;48.852;9.152;2023-04-03T13:56:42;7.27;51.63
65972;SHT31;52726;48.852;9.152;2023-04-03T14:01:46;7.38;50.10
65972;SHT31;52726;48.852;9.152;2023-04-03T14:04:23;7.31;51.26
65972;SHT31;52726;48.852;9.152;2023-04-03T14:06:51;7.26;52.21
65972;SHT31;52726;48.852;9.152;2023-04-03T14:09:18;7.16;51.33
65972;SHT31;52726;48.852;9.152;2023-04-03T14:11:44;7.32;50.13
65972;SHT31;52726;48.852;9.152;2023-04-03T14:14:20;7.44;49.22
65972;SHT31;52726;48.852;9.152;2023-04-03T14:16:51;7.54;52.40
65972;SHT31;52726;48.852;9.152;2023-04-03T14:19:22;7.34;52.43
65972;SHT31;52726;48.852;9.152;2023-04-03T14:21:47;6.96;52.42
65972;SHT31;52726;48.852;9.152;2023-04-03T14:24:13;6.76;51.32
65972;SHT31;52726;48.852;9.152;2023-04-03T14:26:38;6.95;52.33
65972;SHT31;52726;48.852;9.152;2023-04-03T14:29:03;7.19;47.04
65972;SHT31;52726;48.852;9.152;2023-04-03T14:31:29;7.32;46.10
65972;SHT31;52726;48.852;9.152;2023-04-03T14:33:54;7.24;46.47
65972;SHT31;52726;48.852;9.152;2023-04-03T14:36:23;7.35;48.18
65972;SHT31;52726;48.852;9.152;2023-04-03T14:38:51;7.50;47.54
65972;SHT31;52726;48.852;9.152;2023-04-03T14:41:19;7.59;50.23
65972;SHT31;52726;48.852;9.152;2023-04-03T14:43:46;7.19;47.35
65972;SHT31;52726;48.852;9.152;2023-04-03T14:48:39;6.85;49.30
65972;SHT31;52726;48.852;9.152;2023-04-03T14:51:04;6.88;48.67
65972;SHT31;52726;48.852;9.152;2023-04-03T14:53:29;7.17;49.72
65972;SHT31;52726;48.852;9.152;2023-04-03T14:55:57;7.44;46.17
65972;SHT31;52726;48.852;9.152;2023-04-03T14:58:23;7.69;45.24
65972;SHT31;52726;48.852;9.152;2023-04-03T15:00:48;7.57;45.53
65972;SHT31;52726;48.852;9.152;2023-04-03T15:03:19;7.30;45.57
65972;SHT31;52726;48.852;9.152;2023-04-03T15:05:46;7.01;45.85
65972;SHT31;52726;48.852;9.152;2023-04-03T15:08:23;7.01;46.38
65972;SHT31;52726;48.852;9.152;2023-04-03T15:10:50;6.96;46.63
65972;SHT31;52726;48.852;9.152;2023-04-03T15:13:18;7.46;47.55
65972;SHT31;52726;48.852;9.152;2023-04-03T15:15:44;7.96;45.54
65972;SHT31;52726;48.852;9.152;2023-04-03T15:18:22;7.87;44.57
65972;SHT31;52726;48.852;9.152;2023-04-03T15:20:48;7.99;44.68
65972;SHT31;52726;48.852;9.152;2023-04-03T15:23:16;8.07;45.48
65972;SHT31;52726;48.852;9.152;2023-04-03T15:25:43;7.81;46.29
65972;SHT31;52726;48.852;9.152;2023-04-03T15:30:53;7.26;48.80
65972;SHT31;52726;48.852;9.152;2023-04-03T15:33:19;7.00;48.40
65972;SHT31;52726;48.852;9.152;2023-04-03T15:35:44;6.97;50.38
65972;SHT31;52726;48.852;9.152;2023-04-03T15:38:10;6.75;49.87
65972;SHT31;52726;48.852;9.152;2023-04-03T15:40:36;6.76;48.28
65972;SHT31;52726;48.852;9.152;2023-04-03T15:43:01;6.97;46.57
65972;SHT31;52726;48.852;9.152;2023-04-03T15:45:29;7.07;45.86
65972;SHT31;52726;48.852;9.152;2023-04-03T15:47:55;7.17;45.23
65972;SHT31;52726;48.852;9.152;2023-04-03T15:50:21;7.34;44.72
65972;SHT31;52726;48.852;9.152;2023-04-03T15:52:49;7.43;44.74
65972;SHT31;52726;48.852;9.152;2023-04-03T15:55:20;7.55;44.26
65972;SHT31;52726;48.852;9.152;2023-04-03T15:57:46;7.57;44.47
65972;SHT31;52726;48.852;9.152;2023-04-03T16:00:12;7.66;43.85
65972;SHT31;52726;48.852;9.152;2023-04-03T16:02:37;7.69;45.08
65972;SHT31;52726;48.852;9.152;2023-04-03T16:05:03;7.90;43.78
65972;SHT31;52726;48.852;9.152;2023-04-03T16:07:29;7.74;44.57
65972;SHT31;52726;48.852;9.152;2023-04-03T16:09:54;7.34;46.50
65972;SHT31;52726;48.852;9.152;2023-04-03T16:12:20;7.09;47.54
65972;SHT31;52726;48.852;9.152;2023-04-03T16:14:45;6.97;47.72
65972;SHT31;52726;48.852;9.152;2023-04-03T16:17:10;6.52;47.41
65972;SHT31;52726;48.852;9.152;2023-04-03T16:19:36;6.37;48.97
65972;SHT31;52726;48.852;9.152;2023-04-03T16:22:01;6.23;49.44
65972;SHT31;52726;48.852;9.152;2023-04-03T16:24:27;6.35;47.84
65972;SHT31;52726;48.852;9.152;2023-04-03T16:26:52;6.44;47.47
65972;SHT31;52726;48.852;9.152;2023-04-03T16:29:18;6.44;47.88
65972;SHT31;52726;48.852;9.152;2023-04-03T16:31:43;6.52;47.56
65972;SHT31;52726;48.852;9.152;2023-04-03T16:34:09;6.59;47.44
65972;SHT31;52726;48.852;9.152;2023-04-03T16:36:35;6.62;48.16
65972;SHT31;52726;48.852;9.152;2023-04-03T16:39:03;6.78;47.02
65972;SHT31;52726;48.852;9.152;2023-04-03T16:41:28;6.75;47.02
65972;SHT31;52726;48.852;9.152;2023-04-03T16:43:53;6.67;49.06
65972;SHT31;52726;48.852;9.152;2023-04-03T16:46:19;6.46;48.11
65972;SHT31;52726;48.852;9.152;2023-04-03T16:48:44;6.61;47.74
65972;SHT31;52726;48.852;9.152;2023-04-03T16:51:11;6.41;48.17
65972;SHT31;52726;48.852;9.152;2023-04-03T16:53:37;6.33;48.59
65972;SHT31;52726;48.852;9.152;2023-04-03T16:56:02;6.17;49.40
65972;SHT31;52726;48.852;9.152;2023-04-03T16:58:28;6.07;49.89
65972;SHT31;52726;48.852;9.152;2023-04-03T17:00:53;6.10;49.32
65972;SHT31;52726;48.852;9.152;2023-04-03T17:03:20;6.06;50.27
65972;SHT31;52726;48.852;9.152;2023-04-03T17:05:49;5.97;51.66
65972;SHT31;52726;48.852;9.152;2023-04-03T17:08:16;5.90;50.96
65972;SHT31;52726;48.852;9.152;2023-04-03T17:10:42;5.85;52.64
65972;SHT31;52726;48.852;9.152;2023-04-03T17:13:07;5.89;52.72
65972;SHT31;52726;48.852;9.152;2023-04-03T17:15:33;5.87;52.92
65972;SHT31;52726;48.852;9.152;2023-04-03T17:17:59;5.89;54.22
65972;SHT31;52726;48.852;9.152;2023-04-03T17:20:24;5.89;53.29
65972;SHT31;52726;48.852;9.152;2023-04-03T17:22:50;5.94;52.78
65972;SHT31;52726;48.852;9.152;2023-04-03T17:25:16;5.90;50.45